Time;durP1;ratioP1;P1;durP2;ratioP2;P2;SDS_P1;SDS_P2;PMS_P1;PMS_P2;Temp;Humidity;BMP_temperature;BMP_pressure;BME280_temperature;BME280_humidity;BME280_pressure;Samples;Min_cycle;Max_cycle;Signal;HPM_P1;HPM_P2
2021/08/09 00:01:46;;;;;;;7.57;2.80;;;25.30;54.90;;;;;;21120830;27;80780;-59
2021/08/09 00:11:47;;;;;;;8.13;2.80;;;25.30;56.60;;;;;;21140728;27;79936;-63
2021/08/09 00:21:48;;;;;;;5.35;2.85;;;25.10;57.30;;;;;;21139299;27;80434;-60
2021/08/09 00:31:50;;;;;;;7.75;2.70;;;24.90;59.60;;;;;;21123494;27;81751;-63
2021/08/09 00:41:51;;;;;;;10.60;2.88;;;24.80;59.90;;;;;;21134905;27;79995;-64
2021/08/09 00:51:55;;;;;;;6.53;2.80;;;24.90;59.80;;;;;;21153064;27;80798;-64
2021/08/09 01:01:56;;;;;;;6.57;3.22;;;24.80;59.70;;;;;;21132789;27;82132;-62
2021/08/09 01:12:10;;;;;;;8.60;3.05;;;24.70;60.50;;;;;;21133039;27;80143;-59
2021/08/09 01:22:25;;;;;;;7.32;3.33;;;24.70;60.90;;;;;;21132044;27;80758;-62
2021/08/09 01:32:27;;;;;;;10.43;2.97;;;24.50;61.80;;;;;;21131707;27;79864;-60
2021/08/09 01:42:29;;;;;;;11.13;2.97;;;24.50;62.00;;;;;;21129497;27;81682;-59
2021/08/09 01:52:43;;;;;;;18.33;9.02;;;24.20;64.10;;;;;;21148247;27;80111;-60
2021/08/09 02:03:01;;;;;;;8.30;4.13;;;24.20;64.10;;;;;;21131469;27;81070;-60
2021/08/09 02:13:23;;;;;;;8.02;3.70;;;24.20;62.20;;;;;;21130805;27;80964;-60
2021/08/09 02:23:36;;;;;;;6.82;3.53;;;24.10;61.90;;;;;;21127345;27;79986;-59
2021/08/09 02:33:39;;;;;;;6.68;2.95;;;24.00;64.70;;;;;;21126638;27;80951;-61
2021/08/09 02:43:44;;;;;;;6.20;2.95;;;23.90;65.40;;;;;;21127926;27;81149;-61
2021/08/09 02:53:51;;;;;;;9.55;3.60;;;23.90;65.70;;;;;;21125915;27;80789;-58
2021/08/09 03:03:56;;;;;;;6.45;2.90;;;23.90;65.70;;;;;;21142488;27;80343;-59
2021/08/09 03:14:24;;;;;;;8.98;3.28;;;23.90;64.30;;;;;;21142689;27;80744;-60
2021/08/09 03:24:32;;;;;;;9.07;3.88;;;23.90;64.80;;;;;;21123761;27;80501;-59
2021/08/09 03:34:37;;;;;;;11.02;4.22;;;23.80;66.80;;;;;;21124936;27;80982;-59
2021/08/09 03:44:47;;;;;;;7.35;3.00;;;24.00;67.70;;;;;;21141261;27;80470;-61
2021/08/09 03:54:54;;;;;;;9.68;3.83;;;23.90;65.40;;;;;;21121951;27;81942;-61
2021/08/09 04:04:58;;;;;;;5.65;3.25;;;23.90;67.00;;;;;;21119809;27;80501;-59
2021/08/09 04:15:06;;;;;;;9.02;3.05;;;24.00;65.30;;;;;;21139195;27;80792;-62
2021/08/09 04:25:11;;;;;;;9.10;3.55;;;24.30;65.40;;;;;;21121081;27;81273;-61
2021/08/09 04:35:14;;;;;;;8.02;2.83;;;24.50;64.20;;;;;;21119729;27;81924;-68
2021/08/09 04:45:18;;;;;;;7.72;3.45;;;24.60;63.50;;;;;;21138086;27;80793;-62
2021/08/09 04:55:26;;;;;;;7.28;2.85;;;24.60;64.50;;;;;;21119514;27;80558;-61
2021/08/09 05:05:29;;;;;;;7.40;3.55;;;24.50;64.20;;;;;;21118115;27;80941;-64
2021/08/09 05:15:34;;;;;;;5.68;2.50;;;24.50;63.10;;;;;;21136308;27;81065;-59
2021/08/09 05:25:35;;;;;;;14.05;4.55;;;24.60;62.40;;;;;;21149963;27;80792;-59
2021/08/09 05:35:38;;;;;;;10.93;3.53;;;24.70;65.00;;;;;;21130909;27;80985;-66
2021/08/09 05:45:41;;;;;;;7.57;2.67;;;24.60;63.90;;;;;;21148280;27;80798;-59
2021/08/09 05:55:44;;;;;;;6.70;3.05;;;24.60;63.00;;;;;;21129940;27;81688;-61
2021/08/09 06:05:46;;;;;;;12.45;3.20;;;24.70;62.30;;;;;;21128728;27;81804;-59
2021/08/09 06:15:49;;;;;;;10.15;2.95;;;24.70;64.20;;;;;;21130576;27;79948;-60
2021/08/09 06:25:51;;;;;;;7.82;2.88;;;24.90;62.50;;;;;;21127201;27;80726;-63
2021/08/09 06:35:54;;;;;;;7.00;2.58;;;25.00;61.20;;;;;;21126573;27;81027;-60
2021/08/09 06:45:57;;;;;;;11.20;3.20;;;25.00;62.00;;;;;;21126853;27;80803;-61
2021/08/09 06:55:59;;;;;;;7.00;3.03;;;25.20;61.10;;;;;;21126498;27;80444;-60
2021/08/09 07:06:02;;;;;;;12.25;3.38;;;25.30;60.80;;;;;;21125555;27;80575;-61
2021/08/09 07:16:06;;;;;;;8.73;3.50;;;25.50;60.00;;;;;;21124781;27;80705;-60
2021/08/09 07:26:08;;;;;;;8.68;3.22;;;25.60;60.40;;;;;;21142060;27;80972;-60
2021/08/09 07:36:10;;;;;;;7.75;2.90;;;26.00;59.00;;;;;;21123351;27;80802;-59
2021/08/09 07:46:13;;;;;;;6.32;2.97;;;26.20;58.40;;;;;;21140889;27;81849;-70
2021/08/09 07:56:15;;;;;;;9.85;3.40;;;26.90;56.60;;;;;;21121102;27;79842;-67
2021/08/09 08:06:18;;;;;;;10.27;3.20;;;27.00;55.60;;;;;;21120703;27;80695;-68
2021/08/09 08:16:20;;;;;;;5.93;3.13;;;27.40;54.40;;;;;;21139816;27;80789;-67
2021/08/09 08:26:25;;;;;;;10.50;3.30;;;27.60;53.20;;;;;;21121493;27;80796;-68
2021/08/09 08:36:27;;;;;;;6.22;3.03;;;27.90;52.60;;;;;;21120893;27;81997;-71
2021/08/09 08:46:30;;;;;;;11.13;3.88;;;27.70;52.30;;;;;;21138585;27;79949;-67
2021/08/09 08:56:36;;;;;;;9.75;3.28;;;27.40;53.10;;;;;;21149093;27;81556;-64
2021/08/09 09:06:43;;;;;;;7.72;3.83;;;27.60;52.80;;;;;;21135574;27;80729;-64
2021/08/09 09:16:47;;;;;;;8.98;3.25;;;27.90;51.50;;;;;;21134626;27;81167;-66
2021/08/09 09:26:59;;;;;;;8.05;3.47;;;28.00;50.60;;;;;;21133213;27;80812;-65
2021/08/09 09:37:01;;;;;;;14.52;4.22;;;28.10;50.20;;;;;;21132749;27;81768;-68
2021/08/09 09:47:28;;;;;;;13.07;3.95;;;28.40;49.30;;;;;;21150739;27;80174;-64
2021/08/09 09:57:29;;;;;;;10.00;3.90;;;28.70;49.00;;;;;;21132010;27;79948;-63
2021/08/09 10:07:34;;;;;;;11.95;3.72;;;29.00;47.70;;;;;;21129248;27;81969;-64
2021/08/09 10:17:36;;;;;;;8.38;2.92;;;29.70;45.80;;;;;;21130109;27;80871;-67
2021/08/09 10:27:48;;;;;;;7.65;2.80;;;30.80;43.60;;;;;;21147579;27;80058;-64
2021/08/09 10:38:11;;;;;;;9.23;2.60;;;31.70;41.10;;;;;;21146663;27;79891;-66
2021/08/09 10:48:13;;;;;;;5.88;3.10;;;33.30;37.30;;;;;;21128392;27;79774;-69
2021/08/09 10:58:43;;;;;;;9.95;2.78;;;34.70;34.50;;;;;;21126939;27;80279;-71
2021/08/09 11:08:44;;;;;;;6.40;2.43;;;36.50;31.80;;;;;;21126027;27;79916;-70
2021/08/09 11:18:57;;;;;;;5.95;2.67;;;38.60;26.90;;;;;;21142895;27;80757;-69
2021/08/09 11:29:04;;;;;;;8.00;3.97;;;40.60;24.70;;;;;;21124680;27;79878;-71
2021/08/09 11:39:06;;;;;;;7.97;2.30;;;44.10;22.10;;;;;;21140896;27;81010;-70
2021/08/09 11:49:09;;;;;;;8.05;2.00;;;46.70;19.30;;;;;;21123212;27;81950;-70
2021/08/09 11:59:16;;;;;;;9.02;2.47;;;48.60;17.30;;;;;;21140904;27;82208;-71
2021/08/09 12:09:24;;;;;;;6.82;1.90;;;49.60;16.30;;;;;;21121706;27;81227;-71
2021/08/09 12:19:40;;;;;;;7.93;2.47;;;50.60;15.00;;;;;;21139682;27;80469;-70
2021/08/09 12:30:11;;;;;;;4.90;2.30;;;50.90;15.10;;;;;;21120960;27;80794;-70
2021/08/09 12:40:17;;;;;;;8.88;2.47;;;52.00;14.90;;;;;;21121913;27;81934;-69
2021/08/09 12:50:20;;;;;;;5.80;2.83;;;54.00;14.10;;;;;;21138650;27;81007;-70
2021/08/09 13:00:27;;;;;;;5.25;2.63;;;55.00;13.50;;;;;;21104244;27;80202;-69
2021/08/09 13:10:31;;;;;;;4.57;2.92;;;54.00;13.90;;;;;;21120656;27;80759;-70
2021/08/09 13:20:34;;;;;;;5.75;3.22;;;56.20;13.80;;;;;;21119591;27;81049;-70
2021/08/09 13:30:38;;;;;;;5.75;3.17;;;56.60;12.90;;;;;;21120970;27;81069;-69
2021/08/09 13:40:43;;;;;;;5.63;3.38;;;56.50;12.30;;;;;;21124641;27;81139;-70
2021/08/09 13:50:46;;;;;;;5.15;3.17;;;55.90;13.40;;;;;;21130353;27;81010;-70
2021/08/09 14:00:50;;;;;;;9.93;3.97;;;55.30;12.60;;;;;;21129238;27;80921;-70
2021/08/09 14:10:54;;;;;;;9.63;3.78;;;53.80;13.00;;;;;;21129640;27;80084;-71
2021/08/09 14:20:58;;;;;;;7.87;4.07;;;55.00;13.10;;;;;;21129125;27;81637;-71
2021/08/09 14:31:00;;;;;;;4.10;3.72;;;56.40;12.60;;;;;;21147900;27;80688;-70
2021/08/09 14:41:02;;;;;;;5.40;4.45;;;56.90;12.50;;;;;;21127828;27;80737;-69
2021/08/09 14:51:04;;;;;;;7.72;4.57;;;55.80;11.50;;;;;;21144016;27;80849;-70
2021/08/09 15:01:07;;;;;;;8.17;3.10;;;56.30;11.60;;;;;;21127572;27;80700;-70
2021/08/09 15:11:09;;;;;;;7.80;3.20;;;54.70;12.40;;;;;;21145370;27;82381;-70
2021/08/09 15:21:11;;;;;;;5.88;2.75;;;47.30;14.30;;;;;;21124973;27;80669;-70
2021/08/09 15:31:13;;;;;;;2.72;2.22;;;45.00;15.60;;;;;;21125153;27;80252;-70
2021/08/09 15:41:17;;;;;;;5.13;2.00;;;41.90;17.10;;;;;;21125021;27;80150;-68
2021/08/09 15:51:20;;;;;;;5.43;2.17;;;41.00;17.20;;;;;;21125477;27;80714;-70
2021/08/09 16:01:22;;;;;;;4.18;1.67;;;39.70;18.40;;;;;;21139618;27;80934;-70
2021/08/09 16:11:24;;;;;;;5.15;2.17;;;38.60;18.90;;;;;;21122480;27;79978;-68
2021/08/09 16:21:26;;;;;;;3.50;1.92;;;39.50;18.30;;;;;;21139885;27;80935;-69
2021/08/09 16:31:27;;;;;;;3.50;2.20;;;43.00;15.90;;;;;;21121696;27;81070;-68
2021/08/09 16:41:30;;;;;;;5.20;2.00;;;43.00;15.90;;;;;;21140324;27;80635;-69
2021/08/09 16:51:32;;;;;;;5.07;2.17;;;39.80;18.50;;;;;;21121476;27;80813;-69
2021/08/09 17:01:35;;;;;;;5.13;1.73;;;38.50;19.20;;;;;;21120362;27;81248;-69
2021/08/09 17:11:37;;;;;;;4.82;2.42;;;38.80;19.30;;;;;;21120819;27;80142;-69
2021/08/09 17:21:39;;;;;;;6.68;1.67;;;37.90;20.80;;;;;;21153093;27;80720;-69
2021/08/09 17:31:41;;;;;;;6.78;1.80;;;37.00;20.50;;;;;;21134479;27;80475;-70
2021/08/09 17:41:43;;;;;;;4.93;1.90;;;36.30;21.00;;;;;;21132329;27;80761;-70
2021/08/09 17:51:45;;;;;;;7.43;2.47;;;35.90;21.50;;;;;;21131508;27;80807;-70
2021/08/09 18:01:48;;;;;;;4.25;2.20;;;39.00;19.70;;;;;;21129836;27;81249;-69
2021/08/09 18:11:50;;;;;;;4.78;1.90;;;39.70;18.60;;;;;;21129331;27;81167;-68
2021/08/09 18:21:52;;;;;;;8.75;2.60;;;37.90;20.50;;;;;;21128861;27;81152;-68
2021/08/09 18:31:54;;;;;;;10.07;2.38;;;37.10;21.30;;;;;;21127860;27;80854;-67
2021/08/09 18:41:56;;;;;;;17.77;14.50;;;36.40;23.00;;;;;;21145490;27;80492;-68
2021/08/09 18:51:58;;;;;;;22.27;14.05;;;35.50;24.60;;;;;;21115238;27;82612;-70
2021/08/09 19:02:00;;;;;;;16.55;10.48;;;34.20;26.20;;;;;;21114151;27;83258;-68
2021/08/09 19:12:02;;;;;;;20.55;16.42;;;33.50;26.90;;;;;;21113953;27;83328;-69
2021/08/09 19:22:04;;;;;;;10.13;4.20;;;32.90;28.30;;;;;;21114572;27;83455;-70
2021/08/09 19:32:06;;;;;;;16.80;13.40;;;32.40;28.20;;;;;;21143855;27;84417;-73
2021/08/09 19:42:08;;;;;;;12.93;9.35;;;32.10;29.90;;;;;;21111741;27;82752;-71
2021/08/09 19:52:10;;;;;;;16.33;12.38;;;31.60;30.10;;;;;;21142555;27;83040;-72
2021/08/09 20:02:17;;;;;;;16.77;8.32;;;31.40;31.40;;;;;;21129519;27;83078;-74
2021/08/09 20:12:19;;;;;;;12.60;5.38;;;31.00;31.70;;;;;;21123386;27;83928;-72
2021/08/09 20:22:21;;;;;;;10.82;4.30;;;30.80;31.90;;;;;;21141674;27;81742;-69
2021/08/09 20:32:23;;;;;;;11.05;4.47;;;30.60;31.40;;;;;;21142284;27;80541;-71
2021/08/09 20:42:25;;;;;;;13.02;3.13;;;30.50;30.70;;;;;;21123681;27;81036;-68
2021/08/09 20:52:27;;;;;;;11.63;6.88;;;30.60;31.10;;;;;;21132397;27;79966;-70
2021/08/09 21:02:29;;;;;;;14.40;4.80;;;30.60;33.10;;;;;;21153508;27;81703;-72
2021/08/09 21:12:37;;;;;;;10.93;2.28;;;30.40;33.90;;;;;;21134134;27;80653;-68
2021/08/09 21:22:39;;;;;;;7.70;2.40;;;30.20;34.80;;;;;;21133949;27;81868;-67
2021/08/09 21:32:41;;;;;;;7.78;2.72;;;30.10;35.80;;;;;;21132959;27;82016;-68
2021/08/09 21:42:42;;;;;;;6.55;3.00;;;29.90;36.70;;;;;;21133075;27;80940;-67
2021/08/09 21:52:44;;;;;;;4.90;1.90;;;29.90;37.30;;;;;;21151079;27;81336;-67
2021/08/09 22:02:46;;;;;;;7.43;2.25;;;29.80;37.60;;;;;;21149355;27;81514;-67
2021/08/09 22:12:48;;;;;;;8.65;5.70;;;29.80;38.00;;;;;;21130885;27;80542;-69
2021/08/09 22:22:50;;;;;;;29.02;19.77;;;29.70;38.40;;;;;;21146914;27;80744;-67
2021/08/09 22:32:52;;;;;;;12.38;8.77;;;29.50;38.50;;;;;;21118019;27;82743;-68
2021/08/09 22:42:54;;;;;;;6.63;3.10;;;29.50;38.90;;;;;;21127702;27;83386;-67
2021/08/09 22:52:57;;;;;;;7.00;2.10;;;29.40;39.90;;;;;;21128484;27;80721;-68
2021/08/09 23:02:59;;;;;;;9.63;6.45;;;29.10;40.20;;;;;;21127329;27;80591;-67
2021/08/09 23:13:04;;;;;;;12.20;2.20;;;29.10;40.60;;;;;;21125996;27;81274;-68
2021/08/09 23:23:07;;;;;;;14.65;10.20;;;29.00;41.20;;;;;;21125950;27;80689;-68
2021/08/09 23:33:09;;;;;;;11.07;3.42;;;28.90;41.00;;;;;;21133153;27;82810;-68
2021/08/09 23:43:11;;;;;;;5.43;2.22;;;28.80;41.80;;;;;;21124782;27;84413;-69
2021/08/09 23:53:13;;;;;;;7.43;4.38;;;28.70;42.10;;;;;;21142549;27;80538;-71
